createdAt,value
2023-05-15T00:07:36.794Z,14.94
2023-05-15T00:18:02.570Z,14.92
2023-05-15T00:28:28.398Z,15.03
2023-05-15T00:38:54.211Z,15.09
2023-05-15T00:49:23.010Z,15.00
2023-05-15T00:59:51.071Z,14.92
2023-05-15T01:10:18.139Z,14.80
2023-05-15T01:21:19.713Z,14.67
2023-05-15T01:31:51.595Z,14.65
2023-05-15T01:42:20.896Z,14.50
2023-05-15T01:52:51.313Z,14.45
2023-05-15T02:03:17.698Z,14.41
2023-05-15T02:13:44.068Z,14.54
2023-05-15T02:24:09.951Z,14.63
2023-05-15T02:34:44.250Z,14.60
2023-05-15T02:45:13.496Z,14.54
2023-05-15T02:55:39.643Z,14.71
2023-05-15T03:06:05.479Z,14.76
2023-05-15T03:16:31.590Z,14.65
2023-05-15T03:26:57.598Z,14.65
2023-05-15T03:37:23.166Z,14.68
2023-05-15T03:47:49.489Z,14.68
2023-05-15T03:58:15.181Z,14.53
2023-05-15T04:08:41.674Z,14.51
2023-05-15T04:19:07.626Z,14.50
2023-05-15T04:29:33.378Z,14.55
2023-05-15T04:39:59.028Z,14.63
2023-05-15T04:50:25.435Z,14.75
2023-05-15T05:00:51.461Z,14.81
2023-05-15T05:11:16.938Z,14.91
2023-05-15T05:21:42.431Z,15.00
2023-05-15T05:32:08.837Z,15.07
2023-05-15T05:42:34.825Z,15.08
2023-05-15T05:53:01.405Z,15.11
2023-05-15T06:03:28.016Z,15.10
2023-05-15T06:13:53.666Z,15.26
2023-05-15T06:24:19.325Z,15.37
2023-05-15T06:34:45.315Z,15.41
2023-05-15T06:45:12.797Z,15.36
2023-05-15T06:55:38.231Z,15.28
2023-05-15T07:06:03.899Z,15.33
2023-05-15T07:16:29.342Z,15.34
2023-05-15T07:37:40.992Z,15.41
2023-05-15T07:48:18.483Z,15.38
2023-05-15T07:58:44.296Z,15.45
2023-05-15T08:09:10.195Z,15.51
2023-05-15T08:19:36.028Z,15.49
2023-05-15T08:30:01.599Z,15.21
2023-05-15T08:50:59.430Z,15.00
2023-05-15T09:01:25.381Z,14.93
2023-05-15T09:11:52.165Z,14.84
2023-05-15T09:22:23.461Z,14.74
2023-05-15T09:32:51.882Z,14.72
2023-05-15T09:43:18.623Z,14.73
2023-05-15T09:53:44.729Z,14.82
2023-05-15T10:04:11.693Z,14.88
2023-05-15T10:14:37.993Z,14.98
2023-05-15T10:25:10.380Z,15.00
2023-05-15T10:35:36.944Z,15.01
2023-05-15T10:46:04.981Z,15.01
2023-05-15T10:56:33.055Z,14.99
2023-05-15T11:07:18.318Z,15.02
2023-05-15T11:18:08.086Z,15.19
2023-05-15T11:28:42.242Z,15.35
2023-05-15T11:39:16.264Z,15.55
2023-05-15T11:49:42.255Z,15.57
2023-05-15T12:00:11.500Z,15.50
2023-05-15T12:10:43.689Z,15.69
2023-05-15T12:21:11.205Z,15.91
2023-05-15T12:31:38.586Z,16.06
2023-05-15T12:42:06.460Z,16.16
2023-05-15T12:52:32.359Z,16.32
2023-05-15T13:02:59.205Z,16.36
2023-05-15T13:13:24.780Z,16.32
2023-05-15T13:23:50.522Z,16.47
2023-05-15T13:34:16.361Z,16.57
2023-05-15T13:44:42.205Z,16.59
2023-05-15T13:55:10.892Z,16.63
2023-05-15T14:05:37.066Z,16.65
2023-05-15T14:16:02.963Z,16.54
2023-05-15T14:26:28.735Z,16.46
2023-05-15T14:36:54.342Z,16.64
2023-05-15T14:47:19.639Z,16.72
2023-05-15T14:57:49.257Z,16.83
2023-05-15T15:08:16.035Z,16.83
2023-05-15T15:18:42.278Z,16.91
2023-05-15T15:29:08.691Z,16.99
2023-05-15T15:39:35.350Z,17.02
2023-05-15T15:50:01.144Z,16.76
2023-05-15T16:00:27.245Z,16.60
2023-05-15T16:10:53.920Z,16.45
2023-05-15T16:21:19.997Z,16.29
2023-05-15T16:31:47.049Z,16.18
2023-05-15T16:42:12.766Z,16.11
2023-05-15T16:52:39.797Z,16.01
2023-05-15T17:03:05.908Z,15.85
2023-05-15T17:13:31.921Z,15.73
2023-05-15T17:23:57.934Z,15.71
2023-05-15T17:34:23.936Z,15.66
2023-05-15T17:44:50.065Z,15.50
2023-05-15T17:55:16.530Z,15.30
2023-05-15T18:05:42.940Z,15.14
2023-05-15T18:16:09.046Z,15.02
2023-05-15T18:26:35.042Z,14.93
2023-05-15T18:37:00.977Z,14.83
2023-05-15T18:47:27.359Z,14.76
2023-05-15T18:57:53.310Z,14.67
2023-05-15T19:08:18.949Z,14.59
2023-05-15T19:18:45.172Z,14.52
2023-05-15T19:29:11.800Z,14.36
2023-05-15T19:39:37.226Z,14.23
2023-05-15T19:50:03.365Z,14.14
2023-05-15T20:00:29.379Z,14.10
2023-05-15T20:10:55.335Z,14.03
2023-05-15T20:21:21.066Z,13.96
2023-05-15T20:31:47.636Z,13.95
2023-05-15T20:42:13.421Z,13.98
2023-05-15T20:52:39.347Z,13.97
2023-05-15T21:03:05.550Z,14.07
2023-05-15T21:13:31.687Z,14.02
2023-05-15T21:23:57.447Z,13.95
2023-05-15T21:34:23.096Z,13.78
2023-05-15T21:44:49.142Z,13.67
2023-05-15T21:55:15.423Z,13.56
2023-05-15T22:05:41.596Z,13.57
2023-05-15T22:16:09.599Z,13.41
2023-05-15T22:26:35.591Z,13.23
2023-05-15T22:37:01.403Z,13.30
2023-05-15T22:47:28.396Z,13.61
2023-05-15T22:57:53.952Z,13.79
2023-05-15T23:08:20.079Z,13.90
2023-05-15T23:18:46.402Z,13.88
2023-05-15T23:29:12.266Z,13.70
2023-05-15T23:39:38.009Z,13.62
2023-05-15T23:50:03.885Z,13.48
